createdAt,value
2022-07-25T00:03:23.651Z,100026.16
2022-07-25T00:08:26.805Z,100028.69
2022-07-25T00:13:29.602Z,100021.31
2022-07-25T00:18:33.831Z,100014.38
2022-07-25T00:23:36.708Z,100013.31
2022-07-25T00:28:39.619Z,100009.50
2022-07-25T00:33:43.823Z,100005.09
2022-07-25T00:38:46.685Z,100005.53
2022-07-25T00:43:49.531Z,100009.31
2022-07-25T00:48:53.776Z,99996.69
2022-07-25T00:53:58.436Z,100000.88
2022-07-25T00:59:01.339Z,99994.97
2022-07-25T01:04:07.008Z,99986.31
2022-07-25T01:09:10.679Z,99986.94
2022-07-25T01:14:13.522Z,99982.69
2022-07-25T01:19:17.864Z,99961.84
2022-07-25T01:24:22.025Z,99963.56
2022-07-25T01:29:24.851Z,99957.03
2022-07-25T01:34:27.664Z,99968.31
2022-07-25T01:39:31.882Z,99958.22
2022-07-25T01:44:34.876Z,99964.75
2022-07-25T01:49:37.789Z,99949.63
2022-07-25T01:54:42.460Z,99940.19
2022-07-25T01:59:46.420Z,99935.53
2022-07-25T02:04:49.780Z,99933.66
2022-07-25T02:09:56.841Z,99925.44
2022-07-25T02:15:00.025Z,99924.16
2022-07-25T02:20:02.867Z,99912.16
2022-07-25T02:25:08.102Z,99904.44
2022-07-25T02:30:11.674Z,99904.44
2022-07-25T02:35:14.509Z,99893.63
2022-07-25T02:40:18.735Z,99887.31
2022-07-25T02:45:21.967Z,99889.19
2022-07-25T02:50:24.873Z,99891.69
2022-07-25T02:55:29.357Z,99885.84
2022-07-25T03:00:32.145Z,99886.00
2022-07-25T03:05:35.103Z,99881.78
2022-07-25T03:10:39.296Z,99880.72
2022-07-25T03:15:42.186Z,99881.56
2022-07-25T03:20:45.050Z,99879.44
2022-07-25T03:25:49.263Z,99875.28
2022-07-25T03:30:52.510Z,99867.09
2022-07-25T03:35:56.433Z,99873.97
2022-07-25T03:41:00.626Z,99867.22
2022-07-25T03:46:03.566Z,99846.63
2022-07-25T03:51:07.398Z,99842.81
2022-07-25T03:56:11.788Z,99841.16
2022-07-25T04:01:14.826Z,99824.38
2022-07-25T04:06:17.925Z,99821.88
2022-07-25T04:11:22.209Z,99823.59
2022-07-25T04:16:25.878Z,99810.97
2022-07-25T04:21:30.987Z,99806.16
2022-07-25T04:26:35.266Z,99793.34
2022-07-25T04:31:38.224Z,99797.38
2022-07-25T04:36:41.127Z,99789.88
2022-07-25T04:41:45.363Z,99784.84
2022-07-25T04:46:48.166Z,99776.00
2022-07-25T04:51:50.995Z,99778.19
2022-07-25T04:56:55.413Z,99777.75
2022-07-25T05:01:58.496Z,99770.41
2022-07-25T05:07:01.279Z,99763.47
2022-07-25T05:12:05.725Z,99762.81
2022-07-25T05:17:08.708Z,99763.69
2022-07-25T05:22:11.535Z,99755.25
2022-07-25T05:27:15.818Z,99761.09
2022-07-25T05:32:18.658Z,99754.91
2022-07-25T05:37:21.566Z,99751.66
2022-07-25T05:42:25.810Z,99747.28
2022-07-25T05:47:28.695Z,99740.41
2022-07-25T05:52:31.621Z,99744.00
2022-07-25T05:57:36.575Z,99732.00
2022-07-25T06:02:39.589Z,99733.91
2022-07-25T06:07:42.914Z,99732.31
2022-07-25T06:12:47.151Z,99721.41
2022-07-25T06:17:50.333Z,99722.47
2022-07-25T06:22:53.607Z,99717.72
2022-07-25T06:27:57.964Z,99710.72
2022-07-25T06:33:00.796Z,99714.16
2022-07-25T06:38:04.382Z,99704.97
2022-07-25T06:43:08.613Z,99692.41
2022-07-25T06:48:11.437Z,99701.09
2022-07-25T06:53:14.274Z,99694.22
2022-07-25T06:58:18.481Z,99695.41
2022-07-25T07:03:25.701Z,99691.38
2022-07-25T07:08:28.546Z,99689.63
2022-07-25T07:13:32.774Z,99686.28
2022-07-25T07:18:35.671Z,99672.50
2022-07-25T07:23:38.562Z,99671.19
2022-07-25T07:28:44.073Z,99663.41
2022-07-25T07:33:47.152Z,99657.97
2022-07-25T07:38:49.981Z,99662.19
2022-07-25T07:43:54.161Z,99652.97
2022-07-25T07:48:57.093Z,99651.09
2022-07-25T07:54:17.421Z,99652.75
2022-07-25T07:59:21.982Z,99633.44
2022-07-25T08:04:24.836Z,99631.28
2022-07-25T08:09:27.778Z,99633.75
2022-07-25T08:14:32.970Z,99625.56
2022-07-25T08:19:36.072Z,99611.03
2022-07-25T08:24:38.858Z,99620.97
2022-07-25T08:29:43.063Z,99613.84
2022-07-25T08:34:45.945Z,99605.28
2022-07-25T08:39:50.597Z,99614.84
2022-07-25T08:44:59.661Z,99598.47
2022-07-25T08:50:04.823Z,99607.59
2022-07-25T08:55:10.670Z,99599.59
2022-07-25T09:00:19.397Z,99587.56
2022-07-25T09:05:23.158Z,99582.16
2022-07-25T09:10:28.452Z,99582.63
2022-07-25T09:15:34.894Z,99598.22
2022-07-25T09:20:41.103Z,99578.78
2022-07-25T09:25:44.175Z,99577.13
2022-07-25T09:30:59.341Z,99580.47
2022-07-25T09:36:12.050Z,99581.00
2022-07-25T09:41:14.930Z,99566.91
2022-07-25T09:46:19.642Z,99583.16
2022-07-25T09:51:23.726Z,99575.94
2022-07-25T09:56:26.634Z,99575.38
2022-07-25T10:01:38.225Z,99574.41
2022-07-25T10:06:49.517Z,99582.94
2022-07-25T10:12:05.912Z,99598.22
2022-07-25T10:17:10.211Z,99595.66
2022-07-25T10:22:13.633Z,99583.28
2022-07-25T10:27:24.317Z,99563.13
2022-07-25T10:32:35.298Z,99564.19
2022-07-25T10:37:38.232Z,99568.50
2022-07-25T10:42:46.242Z,99574.81
2022-07-25T10:47:56.123Z,99581.13
2022-07-25T10:53:00.630Z,99586.47
2022-07-25T10:58:21.623Z,99578.78
2022-07-25T11:03:27.144Z,99568.81
2022-07-25T11:08:33.429Z,99563.03
2022-07-25T11:13:40.149Z,99562.59
2022-07-25T11:18:44.303Z,99553.13
2022-07-25T11:23:51.747Z,99552.22
2022-07-25T11:28:54.632Z,99554.00
2022-07-25T11:33:58.907Z,99566.09
2022-07-25T11:39:01.946Z,99584.38
2022-07-25T11:44:05.502Z,99579.03
2022-07-25T11:49:10.098Z,99566.53
2022-07-25T11:54:13.654Z,99568.09
2022-07-25T11:59:16.817Z,99563.00
2022-07-25T12:04:21.710Z,99554.88
2022-07-25T12:09:24.558Z,99556.50
2022-07-25T12:14:30.101Z,99556.63
2022-07-25T12:19:36.534Z,99559.84
2022-07-25T12:24:39.344Z,99550.28
2022-07-25T12:29:42.151Z,99548.56
2022-07-25T12:34:46.548Z,99550.06
2022-07-25T12:39:49.445Z,99558.41
2022-07-25T12:44:52.759Z,99546.00
2022-07-25T12:49:57.214Z,99537.41
2022-07-25T12:55:00.262Z,99549.72
2022-07-25T13:00:03.494Z,99538.22
2022-07-25T13:05:08.783Z,99537.75
2022-07-25T13:10:12.672Z,99529.41
2022-07-25T13:15:15.532Z,99528.72
2022-07-25T13:20:19.831Z,99559.53
2022-07-25T13:25:22.986Z,99537.97
2022-07-25T13:30:26.149Z,99532.63
2022-07-25T13:35:36.503Z,99533.91
2022-07-25T13:40:42.258Z,99537.75
2022-07-25T13:45:45.186Z,99527.84
2022-07-25T13:50:49.452Z,99529.50
2022-07-25T13:55:52.852Z,99552.22
2022-07-25T14:00:56.172Z,99545.50
2022-07-25T14:06:00.483Z,99536.56
2022-07-25T14:11:05.525Z,99550.81
2022-07-25T14:16:08.767Z,99543.47
2022-07-25T14:21:13.108Z,99543.72
2022-07-25T14:26:16.054Z,99544.84
2022-07-25T14:31:19.053Z,99546.63
2022-07-25T14:36:23.365Z,99536.06
2022-07-25T14:41:26.218Z,99540.72
2022-07-25T14:46:29.064Z,99550.09
2022-07-25T14:51:33.885Z,99545.16
2022-07-25T14:56:36.777Z,99554.84
2022-07-25T15:01:40.808Z,99561.78
2022-07-25T15:06:44.980Z,99560.50
2022-07-25T15:11:47.987Z,99575.03
2022-07-25T15:16:50.926Z,99586.91
2022-07-25T15:21:55.148Z,99587.19
2022-07-25T15:26:58.396Z,99573.19
2022-07-25T15:32:03.518Z,99579.00
2022-07-25T15:37:07.821Z,99575.09
2022-07-25T15:42:10.721Z,99593.69
2022-07-25T15:47:13.611Z,99594.16
2022-07-25T15:52:18.018Z,99609.25
2022-07-25T15:57:20.926Z,99608.59
2022-07-25T16:02:23.876Z,99635.00
2022-07-25T16:07:28.799Z,99606.63
2022-07-25T16:12:31.657Z,99630.44
2022-07-25T16:17:35.300Z,99624.44
2022-07-25T16:22:40.100Z,99617.91
2022-07-25T16:27:42.905Z,99628.94
2022-07-25T16:32:45.799Z,99658.47
2022-07-25T16:37:49.999Z,99667.19
2022-07-25T16:42:55.676Z,99675.72
2022-07-25T16:47:58.519Z,99680.94
2022-07-25T16:53:02.660Z,99685.03
2022-07-25T16:58:05.550Z,99677.25
2022-07-25T17:03:08.469Z,99692.13
2022-07-25T17:08:12.665Z,99702.09
2022-07-25T17:13:15.856Z,99711.66
2022-07-25T17:18:18.747Z,99710.97
2022-07-25T17:23:22.976Z,99724.47
2022-07-25T17:28:26.430Z,99718.28
2022-07-25T17:33:29.363Z,99718.44
2022-07-25T17:38:34.925Z,99709.53
2022-07-25T17:43:38.613Z,99719.91
2022-07-25T17:48:41.992Z,99717.47
2022-07-25T17:53:46.539Z,99706.56
2022-07-25T17:58:49.562Z,99720.03
2022-07-25T18:03:52.433Z,99744.03
2022-07-25T18:08:56.658Z,99736.09
2022-07-25T18:13:59.647Z,99731.56
2022-07-25T18:19:02.478Z,99732.94
2022-07-25T18:24:07.760Z,99741.00
2022-07-25T18:29:10.909Z,99750.34
2022-07-25T18:34:13.910Z,99748.69
2022-07-25T18:39:18.196Z,99755.22
2022-07-25T18:44:21.134Z,99762.28
2022-07-25T18:49:24.090Z,99756.34
2022-07-25T18:54:28.294Z,99766.53
2022-07-25T18:59:31.261Z,99775.91
2022-07-25T19:04:34.117Z,99776.00
2022-07-25T19:09:38.421Z,99789.41
2022-07-25T19:14:41.726Z,99783.50
2022-07-25T19:19:44.654Z,99796.88
2022-07-25T19:24:49.006Z,99798.59
2022-07-25T19:29:52.035Z,99814.75
2022-07-25T19:34:54.893Z,99817.50
2022-07-25T19:39:59.110Z,99826.09
2022-07-25T19:45:01.986Z,99826.75
2022-07-25T19:50:05.572Z,99842.72
2022-07-25T19:55:10.997Z,99854.97
2022-07-25T20:00:14.592Z,99850.75
2022-07-25T20:05:17.479Z,99851.97
2022-07-25T20:10:21.877Z,99852.84
2022-07-25T20:15:24.915Z,99862.06
2022-07-25T20:20:27.828Z,99885.88
2022-07-25T20:25:32.249Z,99877.41
2022-07-25T20:30:35.427Z,99883.88
2022-07-25T20:35:39.132Z,99885.53
2022-07-25T20:40:49.319Z,99900.72
2022-07-25T20:45:52.834Z,99907.63
2022-07-25T20:50:55.632Z,99907.81
2022-07-25T20:55:59.827Z,99906.84
2022-07-25T21:01:03.053Z,99901.84
2022-07-25T21:06:06.151Z,99917.22
2022-07-25T21:11:11.480Z,99914.47
2022-07-25T21:16:14.284Z,99919.38
2022-07-25T21:21:17.779Z,99926.72
2022-07-25T21:26:21.908Z,99925.75
2022-07-25T21:31:25.044Z,99932.81
2022-07-25T21:36:28.399Z,99939.91
2022-07-25T21:41:32.642Z,99949.31
2022-07-25T21:46:35.445Z,99946.28
2022-07-25T21:51:40.606Z,99954.56
2022-07-25T21:56:45.320Z,99952.38
2022-07-25T22:01:48.177Z,99953.84
2022-07-25T22:06:50.973Z,99971.50
2022-07-25T22:11:56.845Z,99964.50
2022-07-25T22:16:59.767Z,99967.91
2022-07-25T22:22:04.087Z,99974.72
2022-07-25T22:27:08.328Z,99973.72
2022-07-25T22:32:11.308Z,99981.19
2022-07-25T22:37:14.173Z,99982.06
2022-07-25T22:42:18.260Z,99987.53
2022-07-25T22:47:21.073Z,99979.09
2022-07-25T22:52:23.875Z,99982.16
2022-07-25T22:57:28.119Z,99992.72
2022-07-25T23:02:30.863Z,99994.34
2022-07-25T23:07:34.292Z,99995.84
2022-07-25T23:12:38.394Z,99988.09
2022-07-25T23:17:41.180Z,100001.09
2022-07-25T23:22:43.960Z,99986.03
2022-07-25T23:27:49.592Z,100000.47
2022-07-25T23:32:52.341Z,99997.13
2022-07-25T23:37:55.087Z,100008.44
2022-07-25T23:42:59.255Z,100000.81
2022-07-25T23:48:02.085Z,100002.69
2022-07-25T23:53:04.898Z,100002.94
2022-07-25T23:58:09.602Z,100003.94
